sensor_id;sensor_type;location;lat;lon;timestamp;P1;durP1;ratioP1;P2;durP2;ratioP2
10557;SDS011;5327;47.238;-2.304;2023-01-31T00:01:25;23.40;;;14.70;;
10557;SDS011;5327;47.238;-2.304;2023-01-31T00:03:59;19.03;;;11.70;;
10557;SDS011;5327;47.238;-2.304;2023-01-31T00:08:52;23.30;;;11.53;;
10557;SDS011;5327;47.238;-2.304;2023-01-31T00:11:19;16.90;;;11.70;;
10557;SDS011;5327;47.238;-2.304;2023-01-31T00:13:45;21.90;;;11.73;;
10557;SDS011;5327;47.238;-2.304;2023-01-31T00:16:12;20.97;;;11.80;;
10557;SDS011;5327;47.238;-2.304;2023-01-31T00:18:38;19.37;;;9.77;;
10557;SDS011;5327;47.238;-2.304;2023-01-31T00:21:08;19.27;;;11.30;;
10557;SDS011;5327;47.238;-2.304;2023-01-31T00:23:35;22.83;;;11.03;;
10557;SDS011;5327;47.238;-2.304;2023-01-31T00:28:34;22.20;;;11.47;;
10557;SDS011;5327;47.238;-2.304;2023-01-31T00:31:00;17.47;;;11.43;;
10557;SDS011;5327;47.238;-2.304;2023-01-31T00:33:26;18.90;;;10.67;;
10557;SDS011;5327;47.238;-2.304;2023-01-31T00:35:52;19.03;;;11.30;;
10557;SDS011;5327;47.238;-2.304;2023-01-31T00:38:18;20.57;;;9.77;;
10557;SDS011;5327;47.238;-2.304;2023-01-31T00:40:50;21.23;;;9.60;;
10557;SDS011;5327;47.238;-2.304;2023-01-31T00:43:16;26.10;;;12.03;;
10557;SDS011;5327;47.238;-2.304;2023-01-31T00:45:42;20.73;;;9.70;;
10557;SDS011;5327;47.238;-2.304;2023-01-31T00:48:08;22.07;;;10.30;;
10557;SDS011;5327;47.238;-2.304;2023-01-31T00:50:34;19.20;;;10.13;;
10557;SDS011;5327;47.238;-2.304;2023-01-31T00:53:00;19.70;;;10.03;;
10557;SDS011;5327;47.238;-2.304;2023-01-31T00:55:27;18.53;;;10.20;;
10557;SDS011;5327;47.238;-2.304;2023-01-31T00:57:53;23.07;;;9.53;;
10557;SDS011;5327;47.238;-2.304;2023-01-31T01:00:19;30.10;;;11.33;;
10557;SDS011;5327;47.238;-2.304;2023-01-31T01:02:45;21.47;;;11.93;;
10557;SDS011;5327;47.238;-2.304;2023-01-31T01:05:11;23.07;;;9.93;;
10557;SDS011;5327;47.238;-2.304;2023-01-31T01:07:37;15.80;;;8.30;;
10557;SDS011;5327;47.238;-2.304;2023-01-31T01:10:04;17.93;;;9.20;;
10557;SDS011;5327;47.238;-2.304;2023-01-31T01:12:30;21.97;;;9.00;;
10557;SDS011;5327;47.238;-2.304;2023-01-31T01:14:56;18.57;;;8.63;;
10557;SDS011;5327;47.238;-2.304;2023-01-31T01:17:22;16.73;;;8.87;;
10557;SDS011;5327;47.238;-2.304;2023-01-31T01:19:48;19.67;;;9.13;;
10557;SDS011;5327;47.238;-2.304;2023-01-31T01:22:14;21.60;;;8.70;;
10557;SDS011;5327;47.238;-2.304;2023-01-31T01:24:44;17.57;;;7.37;;
10557;SDS011;5327;47.238;-2.304;2023-01-31T01:27:10;16.93;;;7.30;;
10557;SDS011;5327;47.238;-2.304;2023-01-31T01:29:37;22.93;;;8.37;;
10557;SDS011;5327;47.238;-2.304;2023-01-31T01:32:03;23.90;;;8.67;;
10557;SDS011;5327;47.238;-2.304;2023-01-31T01:34:30;17.70;;;9.63;;
10557;SDS011;5327;47.238;-2.304;2023-01-31T01:36:56;22.83;;;10.93;;
10557;SDS011;5327;47.238;-2.304;2023-01-31T01:39:22;28.83;;;10.63;;
10557;SDS011;5327;47.238;-2.304;2023-01-31T01:41:48;28.53;;;8.73;;
10557;SDS011;5327;47.238;-2.304;2023-01-31T01:46:59;17.60;;;7.83;;
10557;SDS011;5327;47.238;-2.304;2023-01-31T01:49:32;23.10;;;8.60;;
10557;SDS011;5327;47.238;-2.304;2023-01-31T01:52:01;16.87;;;7.37;;
10557;SDS011;5327;47.238;-2.304;2023-01-31T01:54:29;16.60;;;7.70;;
10557;SDS011;5327;47.238;-2.304;2023-01-31T01:56:58;24.17;;;8.77;;
10557;SDS011;5327;47.238;-2.304;2023-01-31T01:59:26;20.17;;;7.80;;
10557;SDS011;5327;47.238;-2.304;2023-01-31T02:01:54;22.60;;;6.67;;
10557;SDS011;5327;47.238;-2.304;2023-01-31T02:04:21;20.23;;;7.57;;
10557;SDS011;5327;47.238;-2.304;2023-01-31T02:06:48;20.93;;;8.10;;
10557;SDS011;5327;47.238;-2.304;2023-01-31T02:11:59;18.10;;;7.13;;
10557;SDS011;5327;47.238;-2.304;2023-01-31T02:14:25;15.67;;;6.50;;
10557;SDS011;5327;47.238;-2.304;2023-01-31T02:16:51;21.80;;;7.33;;
10557;SDS011;5327;47.238;-2.304;2023-01-31T02:20:05;12.80;;;6.33;;
10557;SDS011;5327;47.238;-2.304;2023-01-31T02:22:08;23.67;;;7.90;;
10557;SDS011;5327;47.238;-2.304;2023-01-31T02:27:27;17.10;;;7.80;;
10557;SDS011;5327;47.238;-2.304;2023-01-31T02:40:53;20.80;;;7.07;;
10557;SDS011;5327;47.238;-2.304;2023-01-31T02:43:31;20.90;;;8.40;;
10557;SDS011;5327;47.238;-2.304;2023-01-31T02:46:20;15.90;;;6.50;;
10557;SDS011;5327;47.238;-2.304;2023-01-31T02:48:51;15.90;;;7.50;;
10557;SDS011;5327;47.238;-2.304;2023-01-31T02:51:22;11.20;;;6.73;;
10557;SDS011;5327;47.238;-2.304;2023-01-31T02:53:50;18.30;;;6.33;;
10557;SDS011;5327;47.238;-2.304;2023-01-31T02:56:20;23.57;;;8.33;;
10557;SDS011;5327;47.238;-2.304;2023-01-31T02:59:06;19.90;;;5.97;;
10557;SDS011;5327;47.238;-2.304;2023-01-31T03:01:34;125.20;;;7.77;;
10557;SDS011;5327;47.238;-2.304;2023-01-31T03:04:02;18.30;;;7.47;;
10557;SDS011;5327;47.238;-2.304;2023-01-31T03:14:35;20.00;;;7.60;;
10557;SDS011;5327;47.238;-2.304;2023-01-31T03:17:07;23.00;;;6.60;;
10557;SDS011;5327;47.238;-2.304;2023-01-31T03:20:01;24.27;;;7.37;;
10557;SDS011;5327;47.238;-2.304;2023-01-31T03:23:11;23.43;;;7.80;;
10557;SDS011;5327;47.238;-2.304;2023-01-31T03:25:18;24.00;;;8.47;;
10557;SDS011;5327;47.238;-2.304;2023-01-31T03:27:53;19.60;;;7.87;;
10557;SDS011;5327;47.238;-2.304;2023-01-31T03:33:18;31.07;;;7.67;;
10557;SDS011;5327;47.238;-2.304;2023-01-31T03:35:46;25.37;;;7.30;;
10557;SDS011;5327;47.238;-2.304;2023-01-31T03:38:21;19.60;;;6.57;;
10557;SDS011;5327;47.238;-2.304;2023-01-31T03:40:52;16.33;;;7.00;;
10557;SDS011;5327;47.238;-2.304;2023-01-31T03:43:23;26.33;;;7.87;;
10557;SDS011;5327;47.238;-2.304;2023-01-31T03:48:15;22.80;;;7.83;;
10557;SDS011;5327;47.238;-2.304;2023-01-31T03:50:45;21.10;;;10.53;;
10557;SDS011;5327;47.238;-2.304;2023-01-31T03:55:45;21.23;;;7.23;;
10557;SDS011;5327;47.238;-2.304;2023-01-31T03:58:14;22.70;;;8.00;;
10557;SDS011;5327;47.238;-2.304;2023-01-31T04:00:43;17.10;;;8.10;;
10557;SDS011;5327;47.238;-2.304;2023-01-31T04:03:15;20.67;;;8.63;;
10557;SDS011;5327;47.238;-2.304;2023-01-31T04:05:42;20.60;;;8.23;;
10557;SDS011;5327;47.238;-2.304;2023-01-31T04:08:09;24.37;;;8.00;;
10557;SDS011;5327;47.238;-2.304;2023-01-31T04:10:35;24.20;;;8.43;;
10557;SDS011;5327;47.238;-2.304;2023-01-31T04:13:01;19.63;;;7.70;;
10557;SDS011;5327;47.238;-2.304;2023-01-31T04:15:27;21.03;;;8.90;;
10557;SDS011;5327;47.238;-2.304;2023-01-31T04:17:53;20.13;;;8.27;;
10557;SDS011;5327;47.238;-2.304;2023-01-31T04:20:19;17.20;;;7.17;;
10557;SDS011;5327;47.238;-2.304;2023-01-31T04:22:46;17.60;;;7.63;;
10557;SDS011;5327;47.238;-2.304;2023-01-31T04:25:12;19.90;;;9.43;;
10557;SDS011;5327;47.238;-2.304;2023-01-31T04:27:38;18.83;;;7.80;;
10557;SDS011;5327;47.238;-2.304;2023-01-31T04:30:04;23.53;;;9.43;;
10557;SDS011;5327;47.238;-2.304;2023-01-31T04:32:30;18.07;;;8.40;;
10557;SDS011;5327;47.238;-2.304;2023-01-31T04:34:56;27.10;;;8.17;;
10557;SDS011;5327;47.238;-2.304;2023-01-31T04:37:22;15.87;;;7.43;;
10557;SDS011;5327;47.238;-2.304;2023-01-31T04:39:48;30.37;;;9.43;;
10557;SDS011;5327;47.238;-2.304;2023-01-31T04:42:14;16.80;;;8.50;;
10557;SDS011;5327;47.238;-2.304;2023-01-31T04:44:41;19.10;;;7.67;;
10557;SDS011;5327;47.238;-2.304;2023-01-31T04:47:07;22.13;;;8.23;;
10557;SDS011;5327;47.238;-2.304;2023-01-31T04:49:33;24.77;;;7.70;;
10557;SDS011;5327;47.238;-2.304;2023-01-31T04:51:59;24.47;;;7.80;;
10557;SDS011;5327;47.238;-2.304;2023-01-31T04:54:25;23.30;;;8.50;;
10557;SDS011;5327;47.238;-2.304;2023-01-31T04:56:51;19.03;;;7.87;;
10557;SDS011;5327;47.238;-2.304;2023-01-31T04:59:17;14.83;;;6.53;;
10557;SDS011;5327;47.238;-2.304;2023-01-31T05:01:43;21.07;;;8.00;;
10557;SDS011;5327;47.238;-2.304;2023-01-31T05:04:09;18.60;;;7.77;;
10557;SDS011;5327;47.238;-2.304;2023-01-31T05:06:36;17.93;;;7.97;;
10557;SDS011;5327;47.238;-2.304;2023-01-31T05:09:02;17.57;;;7.80;;
10557;SDS011;5327;47.238;-2.304;2023-01-31T05:11:28;15.00;;;7.60;;
10557;SDS011;5327;47.238;-2.304;2023-01-31T05:13:54;17.03;;;8.37;;
10557;SDS011;5327;47.238;-2.304;2023-01-31T05:16:20;20.27;;;6.93;;
10557;SDS011;5327;47.238;-2.304;2023-01-31T05:18:46;17.17;;;7.33;;
10557;SDS011;5327;47.238;-2.304;2023-01-31T05:21:14;26.07;;;7.63;;
10557;SDS011;5327;47.238;-2.304;2023-01-31T05:23:40;18.17;;;7.60;;
10557;SDS011;5327;47.238;-2.304;2023-01-31T05:26:06;18.10;;;7.17;;
10557;SDS011;5327;47.238;-2.304;2023-01-31T05:28:32;21.40;;;7.90;;
10557;SDS011;5327;47.238;-2.304;2023-01-31T05:31:03;17.10;;;7.87;;
10557;SDS011;5327;47.238;-2.304;2023-01-31T05:33:29;17.53;;;6.50;;
10557;SDS011;5327;47.238;-2.304;2023-01-31T05:35:58;22.37;;;7.77;;
10557;SDS011;5327;47.238;-2.304;2023-01-31T05:38:24;18.10;;;7.47;;
10557;SDS011;5327;47.238;-2.304;2023-01-31T05:40:51;13.37;;;7.13;;
10557;SDS011;5327;47.238;-2.304;2023-01-31T05:43:17;18.63;;;8.47;;
10557;SDS011;5327;47.238;-2.304;2023-01-31T05:45:43;27.60;;;8.50;;
10557;SDS011;5327;47.238;-2.304;2023-01-31T05:48:09;17.97;;;8.10;;
10557;SDS011;5327;47.238;-2.304;2023-01-31T05:50:35;18.97;;;8.27;;
10557;SDS011;5327;47.238;-2.304;2023-01-31T05:53:01;17.47;;;7.47;;
10557;SDS011;5327;47.238;-2.304;2023-01-31T05:55:27;16.20;;;7.27;;
10557;SDS011;5327;47.238;-2.304;2023-01-31T05:57:53;24.70;;;8.47;;
10557;SDS011;5327;47.238;-2.304;2023-01-31T06:00:20;18.90;;;8.60;;
10557;SDS011;5327;47.238;-2.304;2023-01-31T06:02:46;14.33;;;8.10;;
10557;SDS011;5327;47.238;-2.304;2023-01-31T06:05:12;20.13;;;8.70;;
10557;SDS011;5327;47.238;-2.304;2023-01-31T06:07:38;20.50;;;9.27;;
10557;SDS011;5327;47.238;-2.304;2023-01-31T06:10:05;25.27;;;9.50;;
10557;SDS011;5327;47.238;-2.304;2023-01-31T06:12:32;24.60;;;8.97;;
10557;SDS011;5327;47.238;-2.304;2023-01-31T06:14:58;25.57;;;10.47;;
10557;SDS011;5327;47.238;-2.304;2023-01-31T06:17:24;23.93;;;10.00;;
10557;SDS011;5327;47.238;-2.304;2023-01-31T06:19:50;22.67;;;8.30;;
10557;SDS011;5327;47.238;-2.304;2023-01-31T06:22:17;23.00;;;8.20;;
10557;SDS011;5327;47.238;-2.304;2023-01-31T06:24:43;14.97;;;7.83;;
10557;SDS011;5327;47.238;-2.304;2023-01-31T06:27:09;28.37;;;9.17;;
10557;SDS011;5327;47.238;-2.304;2023-01-31T06:29:36;25.07;;;8.77;;
10557;SDS011;5327;47.238;-2.304;2023-01-31T06:32:02;21.80;;;10.20;;
10557;SDS011;5327;47.238;-2.304;2023-01-31T06:34:28;22.70;;;8.60;;
10557;SDS011;5327;47.238;-2.304;2023-01-31T06:36:54;21.80;;;8.87;;
10557;SDS011;5327;47.238;-2.304;2023-01-31T06:39:20;15.47;;;8.00;;
10557;SDS011;5327;47.238;-2.304;2023-01-31T06:41:46;20.23;;;7.30;;
10557;SDS011;5327;47.238;-2.304;2023-01-31T06:44:12;16.40;;;5.73;;
10557;SDS011;5327;47.238;-2.304;2023-01-31T06:46:38;14.00;;;6.30;;
10557;SDS011;5327;47.238;-2.304;2023-01-31T06:49:04;19.83;;;6.40;;
10557;SDS011;5327;47.238;-2.304;2023-01-31T06:51:30;12.70;;;4.67;;
10557;SDS011;5327;47.238;-2.304;2023-01-31T06:53:56;24.70;;;6.57;;
10557;SDS011;5327;47.238;-2.304;2023-01-31T06:56:23;15.10;;;4.80;;
10557;SDS011;5327;47.238;-2.304;2023-01-31T06:58:49;22.43;;;6.17;;
10557;SDS011;5327;47.238;-2.304;2023-01-31T07:01:15;19.13;;;6.90;;
10557;SDS011;5327;47.238;-2.304;2023-01-31T07:03:41;13.73;;;6.00;;
10557;SDS011;5327;47.238;-2.304;2023-01-31T07:06:08;16.40;;;6.20;;
10557;SDS011;5327;47.238;-2.304;2023-01-31T07:08:34;18.93;;;5.27;;
10557;SDS011;5327;47.238;-2.304;2023-01-31T07:11:01;11.40;;;4.90;;
10557;SDS011;5327;47.238;-2.304;2023-01-31T07:13:27;12.57;;;5.40;;
10557;SDS011;5327;47.238;-2.304;2023-01-31T07:15:56;18.60;;;6.03;;
10557;SDS011;5327;47.238;-2.304;2023-01-31T07:18:22;15.60;;;5.00;;
10557;SDS011;5327;47.238;-2.304;2023-01-31T07:20:49;12.13;;;5.97;;
10557;SDS011;5327;47.238;-2.304;2023-01-31T07:23:15;18.33;;;6.30;;
10557;SDS011;5327;47.238;-2.304;2023-01-31T07:25:41;23.63;;;8.60;;
10557;SDS011;5327;47.238;-2.304;2023-01-31T07:28:07;20.07;;;6.87;;
10557;SDS011;5327;47.238;-2.304;2023-01-31T07:30:34;24.70;;;8.53;;
10557;SDS011;5327;47.238;-2.304;2023-01-31T07:33:00;19.47;;;6.50;;
10557;SDS011;5327;47.238;-2.304;2023-01-31T07:35:26;27.00;;;9.13;;
10557;SDS011;5327;47.238;-2.304;2023-01-31T07:37:52;14.20;;;6.27;;
10557;SDS011;5327;47.238;-2.304;2023-01-31T07:40:19;22.27;;;6.13;;
10557;SDS011;5327;47.238;-2.304;2023-01-31T07:42:46;19.70;;;6.40;;
10557;SDS011;5327;47.238;-2.304;2023-01-31T07:45:13;22.23;;;6.23;;
10557;SDS011;5327;47.238;-2.304;2023-01-31T07:47:39;25.00;;;6.07;;
10557;SDS011;5327;47.238;-2.304;2023-01-31T07:50:06;20.53;;;7.47;;
10557;SDS011;5327;47.238;-2.304;2023-01-31T07:52:33;13.50;;;5.63;;
10557;SDS011;5327;47.238;-2.304;2023-01-31T07:54:59;13.10;;;5.50;;
10557;SDS011;5327;47.238;-2.304;2023-01-31T07:57:25;19.00;;;6.67;;
10557;SDS011;5327;47.238;-2.304;2023-01-31T07:59:51;14.77;;;7.37;;
10557;SDS011;5327;47.238;-2.304;2023-01-31T08:02:17;14.40;;;6.43;;
10557;SDS011;5327;47.238;-2.304;2023-01-31T08:05:02;21.70;;;6.93;;
10557;SDS011;5327;47.238;-2.304;2023-01-31T08:07:28;12.10;;;6.30;;
10557;SDS011;5327;47.238;-2.304;2023-01-31T08:09:54;18.30;;;7.13;;
10557;SDS011;5327;47.238;-2.304;2023-01-31T08:12:20;33.47;;;6.70;;
10557;SDS011;5327;47.238;-2.304;2023-01-31T08:14:46;20.17;;;6.20;;
10557;SDS011;5327;47.238;-2.304;2023-01-31T08:17:13;20.63;;;6.60;;
10557;SDS011;5327;47.238;-2.304;2023-01-31T08:19:39;15.57;;;5.30;;
10557;SDS011;5327;47.238;-2.304;2023-01-31T08:22:05;16.97;;;6.20;;
10557;SDS011;5327;47.238;-2.304;2023-01-31T08:24:31;23.47;;;5.00;;
10557;SDS011;5327;47.238;-2.304;2023-01-31T08:26:58;26.57;;;5.70;;
10557;SDS011;5327;47.238;-2.304;2023-01-31T08:29:24;18.80;;;5.50;;
10557;SDS011;5327;47.238;-2.304;2023-01-31T08:31:50;22.80;;;6.77;;
10557;SDS011;5327;47.238;-2.304;2023-01-31T08:34:16;16.80;;;4.50;;
10557;SDS011;5327;47.238;-2.304;2023-01-31T08:36:42;13.43;;;5.00;;
10557;SDS011;5327;47.238;-2.304;2023-01-31T08:39:09;16.83;;;4.90;;
10557;SDS011;5327;47.238;-2.304;2023-01-31T08:41:38;15.67;;;5.20;;
10557;SDS011;5327;47.238;-2.304;2023-01-31T08:44:04;18.60;;;5.57;;
10557;SDS011;5327;47.238;-2.304;2023-01-31T08:46:33;18.93;;;4.70;;
10557;SDS011;5327;47.238;-2.304;2023-01-31T08:48:59;14.40;;;4.80;;
10557;SDS011;5327;47.238;-2.304;2023-01-31T08:51:26;21.20;;;5.60;;
10557;SDS011;5327;47.238;-2.304;2023-01-31T08:53:52;12.23;;;4.63;;
10557;SDS011;5327;47.238;-2.304;2023-01-31T08:56:19;11.90;;;3.90;;
10557;SDS011;5327;47.238;-2.304;2023-01-31T08:58:49;13.70;;;5.50;;
10557;SDS011;5327;47.238;-2.304;2023-01-31T09:01:16;21.67;;;4.47;;
10557;SDS011;5327;47.238;-2.304;2023-01-31T09:03:43;12.73;;;4.60;;
10557;SDS011;5327;47.238;-2.304;2023-01-31T09:06:12;16.90;;;5.53;;
10557;SDS011;5327;47.238;-2.304;2023-01-31T09:08:39;15.90;;;4.37;;
10557;SDS011;5327;47.238;-2.304;2023-01-31T09:11:05;12.10;;;4.10;;
10557;SDS011;5327;47.238;-2.304;2023-01-31T09:13:31;19.20;;;4.47;;
10557;SDS011;5327;47.238;-2.304;2023-01-31T09:15:59;14.00;;;4.50;;
10557;SDS011;5327;47.238;-2.304;2023-01-31T09:18:25;16.93;;;5.40;;
10557;SDS011;5327;47.238;-2.304;2023-01-31T09:20:51;21.77;;;4.60;;
10557;SDS011;5327;47.238;-2.304;2023-01-31T09:23:17;16.83;;;4.73;;
10557;SDS011;5327;47.238;-2.304;2023-01-31T09:25:44;13.73;;;4.10;;
10557;SDS011;5327;47.238;-2.304;2023-01-31T09:28:15;21.13;;;5.17;;
10557;SDS011;5327;47.238;-2.304;2023-01-31T09:30:42;12.33;;;6.67;;
10557;SDS011;5327;47.238;-2.304;2023-01-31T09:33:08;14.80;;;3.53;;
10557;SDS011;5327;47.238;-2.304;2023-01-31T09:35:34;19.43;;;4.97;;
10557;SDS011;5327;47.238;-2.304;2023-01-31T09:38:00;18.97;;;5.43;;
10557;SDS011;5327;47.238;-2.304;2023-01-31T09:40:26;18.73;;;5.23;;
10557;SDS011;5327;47.238;-2.304;2023-01-31T09:42:56;14.47;;;4.10;;
10557;SDS011;5327;47.238;-2.304;2023-01-31T09:45:27;21.03;;;5.37;;
10557;SDS011;5327;47.238;-2.304;2023-01-31T09:47:55;11.30;;;3.97;;
10557;SDS011;5327;47.238;-2.304;2023-01-31T09:50:26;16.13;;;4.90;;
10557;SDS011;5327;47.238;-2.304;2023-01-31T09:52:56;14.10;;;4.17;;
10557;SDS011;5327;47.238;-2.304;2023-01-31T09:55:27;12.13;;;4.27;;
10557;SDS011;5327;47.238;-2.304;2023-01-31T10:05:29;15.43;;;3.63;;
10557;SDS011;5327;47.238;-2.304;2023-01-31T10:13:00;13.37;;;4.33;;
10557;SDS011;5327;47.238;-2.304;2023-01-31T10:16:12;22.93;;;4.53;;
10557;SDS011;5327;47.238;-2.304;2023-01-31T10:18:28;12.83;;;4.57;;
10557;SDS011;5327;47.238;-2.304;2023-01-31T10:20:57;14.90;;;3.87;;
10557;SDS011;5327;47.238;-2.304;2023-01-31T10:23:33;17.90;;;4.60;;
10557;SDS011;5327;47.238;-2.304;2023-01-31T10:26:13;15.20;;;3.83;;
10557;SDS011;5327;47.238;-2.304;2023-01-31T10:33:54;16.03;;;4.33;;
10557;SDS011;5327;47.238;-2.304;2023-01-31T10:36:25;19.00;;;3.80;;
10557;SDS011;5327;47.238;-2.304;2023-01-31T10:38:56;18.10;;;4.60;;
10557;SDS011;5327;47.238;-2.304;2023-01-31T10:41:28;18.67;;;3.87;;
10557;SDS011;5327;47.238;-2.304;2023-01-31T10:43:58;12.30;;;3.33;;
10557;SDS011;5327;47.238;-2.304;2023-01-31T10:46:25;16.77;;;4.40;;
10557;SDS011;5327;47.238;-2.304;2023-01-31T10:48:51;12.20;;;2.90;;
10557;SDS011;5327;47.238;-2.304;2023-01-31T10:51:20;16.73;;;4.17;;
10557;SDS011;5327;47.238;-2.304;2023-01-31T10:58:52;17.90;;;4.60;;
10557;SDS011;5327;47.238;-2.304;2023-01-31T11:01:18;16.50;;;3.70;;
10557;SDS011;5327;47.238;-2.304;2023-01-31T11:03:49;17.63;;;3.70;;
10557;SDS011;5327;47.238;-2.304;2023-01-31T11:06:16;14.43;;;4.23;;
10557;SDS011;5327;47.238;-2.304;2023-01-31T11:08:45;46.93;;;10.03;;
10557;SDS011;5327;47.238;-2.304;2023-01-31T11:11:16;11.57;;;3.47;;
10557;SDS011;5327;47.238;-2.304;2023-01-31T11:14:04;19.70;;;4.43;;
10557;SDS011;5327;47.238;-2.304;2023-01-31T11:16:30;16.03;;;4.10;;
10557;SDS011;5327;47.238;-2.304;2023-01-31T11:18:57;12.63;;;3.30;;
10557;SDS011;5327;47.238;-2.304;2023-01-31T11:21:25;16.73;;;3.63;;
10557;SDS011;5327;47.238;-2.304;2023-01-31T11:23:53;16.97;;;4.50;;
10557;SDS011;5327;47.238;-2.304;2023-01-31T11:26:24;13.73;;;3.87;;
10557;SDS011;5327;47.238;-2.304;2023-01-31T11:28:53;16.07;;;4.80;;
10557;SDS011;5327;47.238;-2.304;2023-01-31T11:31:21;14.77;;;3.90;;
10557;SDS011;5327;47.238;-2.304;2023-01-31T11:33:58;18.13;;;5.37;;
10557;SDS011;5327;47.238;-2.304;2023-01-31T11:36:25;18.33;;;5.30;;
10557;SDS011;5327;47.238;-2.304;2023-01-31T11:38:56;13.60;;;4.20;;
10557;SDS011;5327;47.238;-2.304;2023-01-31T11:41:25;19.33;;;5.00;;
10557;SDS011;5327;47.238;-2.304;2023-01-31T11:44:09;14.23;;;4.63;;
10557;SDS011;5327;47.238;-2.304;2023-01-31T11:46:50;22.87;;;4.67;;
10557;SDS011;5327;47.238;-2.304;2023-01-31T11:49:33;16.10;;;4.63;;
10557;SDS011;5327;47.238;-2.304;2023-01-31T11:52:02;15.10;;;4.87;;
10557;SDS011;5327;47.238;-2.304;2023-01-31T11:54:36;33.77;;;6.70;;
10557;SDS011;5327;47.238;-2.304;2023-01-31T11:57:12;19.13;;;4.57;;
10557;SDS011;5327;47.238;-2.304;2023-01-31T11:59:38;17.10;;;4.00;;
10557;SDS011;5327;47.238;-2.304;2023-01-31T12:02:04;18.50;;;3.83;;
10557;SDS011;5327;47.238;-2.304;2023-01-31T12:04:34;18.27;;;4.97;;
10557;SDS011;5327;47.238;-2.304;2023-01-31T12:07:17;16.80;;;3.90;;
10557;SDS011;5327;47.238;-2.304;2023-01-31T12:09:45;14.30;;;3.87;;
10557;SDS011;5327;47.238;-2.304;2023-01-31T12:15:13;18.03;;;5.23;;
10557;SDS011;5327;47.238;-2.304;2023-01-31T12:17:44;19.80;;;4.03;;
10557;SDS011;5327;47.238;-2.304;2023-01-31T12:20:21;15.80;;;3.97;;
10557;SDS011;5327;47.238;-2.304;2023-01-31T12:22:52;22.20;;;4.37;;
10557;SDS011;5327;47.238;-2.304;2023-01-31T12:43:20;18.13;;;4.37;;
10557;SDS011;5327;47.238;-2.304;2023-01-31T12:48:40;18.53;;;4.60;;
10557;SDS011;5327;47.238;-2.304;2023-01-31T12:54:02;19.20;;;4.67;;
10557;SDS011;5327;47.238;-2.304;2023-01-31T13:04:25;15.80;;;5.00;;
10557;SDS011;5327;47.238;-2.304;2023-01-31T13:06:56;14.70;;;4.50;;
10557;SDS011;5327;47.238;-2.304;2023-01-31T13:09:27;15.40;;;4.10;;
10557;SDS011;5327;47.238;-2.304;2023-01-31T13:12:08;18.17;;;4.93;;
10557;SDS011;5327;47.238;-2.304;2023-01-31T13:14:39;18.80;;;4.27;;
10557;SDS011;5327;47.238;-2.304;2023-01-31T13:17:09;15.33;;;4.63;;
10557;SDS011;5327;47.238;-2.304;2023-01-31T13:22:27;17.23;;;4.50;;
10557;SDS011;5327;47.238;-2.304;2023-01-31T13:25:05;16.93;;;3.90;;
10557;SDS011;5327;47.238;-2.304;2023-01-31T13:27:39;14.27;;;3.70;;
10557;SDS011;5327;47.238;-2.304;2023-01-31T13:30:14;16.87;;;3.70;;
10557;SDS011;5327;47.238;-2.304;2023-01-31T13:32:46;15.60;;;3.50;;
10557;SDS011;5327;47.238;-2.304;2023-01-31T13:37:42;18.50;;;4.50;;
10557;SDS011;5327;47.238;-2.304;2023-01-31T13:40:16;21.57;;;3.93;;
10557;SDS011;5327;47.238;-2.304;2023-01-31T13:42:43;13.30;;;3.33;;
10557;SDS011;5327;47.238;-2.304;2023-01-31T13:45:11;11.40;;;2.90;;
10557;SDS011;5327;47.238;-2.304;2023-01-31T13:47:55;9.87;;;3.30;;
10557;SDS011;5327;47.238;-2.304;2023-01-31T13:52:55;15.50;;;3.80;;
10557;SDS011;5327;47.238;-2.304;2023-01-31T13:55:26;15.40;;;4.30;;
10557;SDS011;5327;47.238;-2.304;2023-01-31T13:57:57;12.60;;;6.00;;
10557;SDS011;5327;47.238;-2.304;2023-01-31T14:00:46;10.73;;;3.03;;
10557;SDS011;5327;47.238;-2.304;2023-01-31T14:03:18;8.30;;;2.33;;
10557;SDS011;5327;47.238;-2.304;2023-01-31T14:05:59;14.17;;;2.20;;
10557;SDS011;5327;47.238;-2.304;2023-01-31T14:13:42;15.27;;;3.60;;
10557;SDS011;5327;47.238;-2.304;2023-01-31T14:16:32;15.13;;;3.40;;
10557;SDS011;5327;47.238;-2.304;2023-01-31T14:18:58;17.33;;;3.43;;
10557;SDS011;5327;47.238;-2.304;2023-01-31T14:23:54;16.93;;;4.40;;
10557;SDS011;5327;47.238;-2.304;2023-01-31T14:29:15;21.60;;;4.60;;
10557;SDS011;5327;47.238;-2.304;2023-01-31T14:31:43;14.37;;;3.47;;
10557;SDS011;5327;47.238;-2.304;2023-01-31T14:42:25;17.70;;;2.97;;
10557;SDS011;5327;47.238;-2.304;2023-01-31T14:49:58;15.77;;;3.70;;
10557;SDS011;5327;47.238;-2.304;2023-01-31T14:57:30;21.90;;;3.63;;
10557;SDS011;5327;47.238;-2.304;2023-01-31T15:00:00;15.77;;;3.83;;
10557;SDS011;5327;47.238;-2.304;2023-01-31T15:04:58;12.57;;;3.57;;
10557;SDS011;5327;47.238;-2.304;2023-01-31T15:07:25;22.10;;;4.60;;
10557;SDS011;5327;47.238;-2.304;2023-01-31T15:09:52;8.07;;;3.70;;
10557;SDS011;5327;47.238;-2.304;2023-01-31T15:15:18;12.13;;;4.00;;
10557;SDS011;5327;47.238;-2.304;2023-01-31T15:17:47;12.70;;;3.53;;
10557;SDS011;5327;47.238;-2.304;2023-01-31T15:20:15;15.17;;;4.13;;
10557;SDS011;5327;47.238;-2.304;2023-01-31T15:22:42;11.20;;;2.60;;
10557;SDS011;5327;47.238;-2.304;2023-01-31T15:27:47;14.20;;;3.60;;
10557;SDS011;5327;47.238;-2.304;2023-01-31T15:30:17;14.50;;;3.50;;
10557;SDS011;5327;47.238;-2.304;2023-01-31T15:32:57;13.40;;;3.67;;
10557;SDS011;5327;47.238;-2.304;2023-01-31T15:37:55;20.37;;;4.93;;
10557;SDS011;5327;47.238;-2.304;2023-01-31T15:40:26;12.50;;;3.60;;
10557;SDS011;5327;47.238;-2.304;2023-01-31T15:42:53;24.23;;;4.90;;
10557;SDS011;5327;47.238;-2.304;2023-01-31T15:45:23;14.40;;;4.13;;
10557;SDS011;5327;47.238;-2.304;2023-01-31T15:48:00;14.80;;;3.57;;
10557;SDS011;5327;47.238;-2.304;2023-01-31T15:50:29;13.33;;;3.30;;
10557;SDS011;5327;47.238;-2.304;2023-01-31T15:52:55;22.00;;;5.47;;
10557;SDS011;5327;47.238;-2.304;2023-01-31T15:55:22;26.83;;;6.07;;
10557;SDS011;5327;47.238;-2.304;2023-01-31T15:57:53;21.47;;;4.50;;
10557;SDS011;5327;47.238;-2.304;2023-01-31T16:02:50;12.93;;;3.30;;
10557;SDS011;5327;47.238;-2.304;2023-01-31T16:05:24;25.07;;;4.20;;
10557;SDS011;5327;47.238;-2.304;2023-01-31T16:07:51;12.87;;;3.77;;
10557;SDS011;5327;47.238;-2.304;2023-01-31T16:10:17;27.30;;;3.90;;
10557;SDS011;5327;47.238;-2.304;2023-01-31T16:12:45;9.23;;;3.50;;
10557;SDS011;5327;47.238;-2.304;2023-01-31T16:15:25;12.97;;;3.43;;
10557;SDS011;5327;47.238;-2.304;2023-01-31T16:17:52;27.07;;;4.20;;
10557;SDS011;5327;47.238;-2.304;2023-01-31T16:22:57;13.10;;;3.20;;
10557;SDS011;5327;47.238;-2.304;2023-01-31T16:25:23;9.03;;;2.60;;
10557;SDS011;5327;47.238;-2.304;2023-01-31T16:27:49;17.77;;;4.40;;
10557;SDS011;5327;47.238;-2.304;2023-01-31T16:30:16;11.53;;;2.53;;
10557;SDS011;5327;47.238;-2.304;2023-01-31T16:32:43;14.77;;;3.47;;
10557;SDS011;5327;47.238;-2.304;2023-01-31T16:35:19;11.50;;;2.67;;
10557;SDS011;5327;47.238;-2.304;2023-01-31T16:37:47;13.13;;;3.87;;
10557;SDS011;5327;47.238;-2.304;2023-01-31T16:40:24;18.33;;;4.10;;
10557;SDS011;5327;47.238;-2.304;2023-01-31T16:45:35;13.00;;;3.10;;
10557;SDS011;5327;47.238;-2.304;2023-01-31T16:49:03;17.50;;;5.60;;
10557;SDS011;5327;47.238;-2.304;2023-01-31T16:51:09;21.30;;;4.30;;
10557;SDS011;5327;47.238;-2.304;2023-01-31T16:53:42;21.10;;;4.47;;
10557;SDS011;5327;47.238;-2.304;2023-01-31T16:56:19;24.30;;;4.40;;
10557;SDS011;5327;47.238;-2.304;2023-01-31T16:58:55;23.53;;;3.83;;
10557;SDS011;5327;47.238;-2.304;2023-01-31T17:01:28;19.63;;;3.73;;
10557;SDS011;5327;47.238;-2.304;2023-01-31T17:07:00;12.50;;;3.50;;
10557;SDS011;5327;47.238;-2.304;2023-01-31T17:09:27;27.70;;;6.07;;
10557;SDS011;5327;47.238;-2.304;2023-01-31T17:11:53;12.63;;;3.90;;
10557;SDS011;5327;47.238;-2.304;2023-01-31T17:14:20;12.13;;;3.40;;
10557;SDS011;5327;47.238;-2.304;2023-01-31T17:16:50;16.33;;;4.80;;
10557;SDS011;5327;47.238;-2.304;2023-01-31T17:19:16;19.27;;;4.50;;